Time,TemperatureF,DewpointF,PressureIn,WindDirection,WindDirectionDegrees,WindSpeedMPH,WindSpeedGustMPH,Humidity,HourlyPrecipIn,Conditions,Clouds,dailyrainin,SoftwareType,DateUTC
2013-07-22 00:02:00,69.0,69.0,-100.00,East,85,0.0,0.0,99,-99.99,,,-99.99,,2013-07-22 05:02:00,
2013-07-22 00:11:00,69.0,69.0,-100.00,NE,55,0.0,0.0,99,-99.99,,,-99.99,,2013-07-22 05:11:00,
2013-07-22 00:22:00,69.0,69.0,-100.00,NE,55,0.0,0.0,99,-99.99,,,-99.99,,2013-07-22 05:22:00,
2013-07-22 00:43:00,68.0,68.0,-100.00,NNW,340,0.0,0.0,99,-99.99,,,-99.99,,2013-07-22 05:43:00,
2013-07-22 00:52:00,68.0,68.0,-100.00,NNW,340,0.0,0.0,99,-99.99,,,-99.99,,2013-07-22 05:52:00,
2013-07-22 01:22:00,68.0,67.0,-100.00,North,350,0.0,0.0,99,-99.99,,,-99.99,,2013-07-22 06:22:00,
2013-07-22 01:43:00,67.0,67.0,-100.00,ESE,110,0.0,0.0,99,-99.99,,,-99.99,,2013-07-22 06:43:00,
2013-07-22 01:52:00,67.0,67.0,-100.00,ESE,110,0.0,0.0,99,-99.99,,,-99.99,,2013-07-22 06:52:00,
2013-07-22 02:12:00,67.0,67.0,-100.00,ENE,70,0.0,0.0,99,-99.99,,,-99.99,,2013-07-22 07:12:00,
2013-07-22 02:22:00,67.0,67.0,-100.00,ENE,70,0.0,0.0,99,-99.99,,,-99.99,,2013-07-22 07:22:00,
2013-07-22 02:43:00,66.0,66.0,-100.00,ENE,60,0.0,0.0,99,-99.99,,,-99.99,,2013-07-22 07:43:00,
2013-07-22 02:53:00,66.0,66.0,-100.00,ENE,60,0.0,0.0,99,-99.99,,,-99.99,,2013-07-22 07:53:00,
2013-07-22 03:22:00,67.0,67.0,-100.00,ENE,60,0.0,0.0,99,-99.99,,,-99.99,,2013-07-22 08:22:00,
2013-07-22 03:43:00,67.0,67.0,-100.00,WNW,295,0.0,0.0,99,-99.99,,,-99.99,,2013-07-22 08:43:00,
2013-07-22 03:52:00,67.0,67.0,-100.00,WNW,295,0.0,0.0,99,-99.99,,,-99.99,,2013-07-22 08:52:00,
2013-07-22 04:22:00,68.0,68.0,-100.00,ENE,75,0.0,0.0,99,-99.99,,,-99.99,,2013-07-22 09:22:00,
2013-07-22 04:33:00,68.0,68.0,-100.00,North,0,0.0,0.0,99,-99.99,,,-99.99,,2013-07-22 09:33:00,
2013-07-22 04:52:00,68.0,68.0,-100.00,NW,320,0.0,0.0,99,-99.99,,,-99.99,,2013-07-22 09:52:00,
2013-07-22 05:11:00,68.0,68.0,-100.00,South,180,0.0,0.0,99,-99.99,,,-99.99,,2013-07-22 10:11:00,
2013-07-22 05:22:00,68.0,68.0,-100.00,South,180,0.0,0.0,99,-99.99,,,-99.99,,2013-07-22 10:22:00,
2013-07-22 05:32:00,68.0,68.0,-100.00,South,175,0.0,0.0,99,-99.99,,,-99.99,,2013-07-22 10:32:00,
2013-07-22 05:43:00,68.0,68.0,-100.00,SSW,195,0.0,0.0,99,-99.99,,,-99.99,,2013-07-22 10:43:00,
2013-07-22 05:53:00,68.0,68.0,-100.00,SSW,195,0.0,0.0,99,-99.99,,,-99.99,,2013-07-22 10:53:00,
2013-07-22 06:11:00,68.0,68.0,-100.00,East,95,0.0,0.0,99,-99.99,,,-99.99,,2013-07-22 11:11:00,
2013-07-22 06:23:00,68.0,68.0,-100.00,East,95,0.0,0.0,99,-99.99,,,-99.99,,2013-07-22 11:23:00,
2013-07-22 06:32:00,68.0,68.0,-100.00,East,85,0.0,0.0,99,-99.99,,,-99.99,,2013-07-22 11:32:00,
2013-07-22 06:43:00,68.0,68.0,-100.00,East,80,0.0,0.0,99,-99.99,,,-99.99,,2013-07-22 11:43:00,
2013-07-22 06:52:00,68.0,68.0,-100.00,East,80,0.0,0.0,99,-99.99,,,-99.99,,2013-07-22 11:52:00,
2013-07-22 07:22:00,68.0,68.0,-100.00,East,100,0.0,0.0,99,-99.99,,,-99.99,,2013-07-22 12:22:00,
2013-07-22 07:43:00,69.0,68.0,-100.00,South,170,0.0,0.0,99,-99.99,,,-99.99,,2013-07-22 12:43:00,
2013-07-22 07:53:00,69.0,68.0,-100.00,South,170,0.0,0.0,99,-99.99,,,-99.99,,2013-07-22 12:53:00,
2013-07-22 08:22:00,69.0,69.0,-100.00,East,95,0.0,0.0,99,-99.99,,,-99.99,,2013-07-22 13:22:00,
2013-07-22 08:43:00,69.0,69.0,-100.00,East,95,0.0,0.0,99,-99.99,,,-99.99,,2013-07-22 13:43:00,
2013-07-22 08:53:00,69.0,69.0,-100.00,East,95,0.0,0.0,99,-99.99,,,-99.99,,2013-07-22 13:53:00,
2013-07-22 09:11:00,70.0,69.0,-100.00,ESE,105,0.0,0.0,99,-99.99,,,-99.99,,2013-07-22 14:11:00,
2013-07-22 09:22:00,70.0,69.0,-100.00,ESE,105,0.0,0.0,99,-99.99,,,-99.99,,2013-07-22 14:22:00,
2013-07-22 09:43:00,70.0,70.0,-100.00,South,190,0.0,0.0,99,-99.99,,,-99.99,,2013-07-22 14:43:00,
2013-07-22 09:53:00,70.0,70.0,-100.00,South,190,0.0,0.0,99,-99.99,,,-99.99,,2013-07-22 14:53:00,
2013-07-22 10:22:00,71.0,71.0,-100.00,SSE,160,0.0,0.0,99,-99.99,,,-99.99,,2013-07-22 15:22:00,
2013-07-22 10:52:00,74.0,74.0,-100.00,West,280,0.0,0.0,99,-99.99,,,-99.99,,2013-07-22 15:52:00,
2013-07-22 11:22:00,78.0,77.0,-100.00,NW,305,0.0,0.0,99,-99.99,,,-99.99,,2013-07-22 16:22:00,
2013-07-22 11:32:00,80.0,77.0,-100.00,West,260,0.0,0.0,90,-99.99,,,-99.99,,2013-07-22 16:32:00,
2013-07-22 11:43:00,81.0,73.0,-100.00,SE,135,0.0,0.0,78,-99.99,,,-99.99,,2013-07-22 16:43:00,
2013-07-22 11:52:00,81.0,73.0,-100.00,SE,135,0.0,0.0,78,-99.99,,,-99.99,,2013-07-22 16:52:00,
2013-07-22 12:01:00,82.0,73.0,-100.00,South,170,0.0,0.0,75,-99.99,,,-99.99,,2013-07-22 17:01:00,
2013-07-22 12:23:00,83.0,73.0,-100.00,South,190,0.0,0.0,72,-99.99,,,-99.99,,2013-07-22 17:23:00,
2013-07-22 12:43:00,84.0,72.0,-100.00,SSE,155,0.0,0.0,67,-99.99,,,-99.99,,2013-07-22 17:43:00,
2013-07-22 12:52:00,84.0,72.0,-100.00,SSE,155,0.0,0.0,67,-99.99,,,-99.99,,2013-07-22 17:52:00,
2013-07-22 13:15:00,85.0,73.0,-100.00,South,175,0.0,0.0,68,-99.99,,,-99.99,,2013-07-22 18:15:00,
2013-07-22 13:27:00,85.0,73.0,-100.00,South,175,0.0,0.0,68,-99.99,,,-99.99,,2013-07-22 18:27:00,
2013-07-22 13:59:00,86.0,75.0,-100.00,South,180,0.0,0.0,70,-99.99,,,-99.99,,2013-07-22 18:59:00,
2013-07-22 14:16:00,89.0,75.0,-100.00,SW,235,0.0,0.0,63,-99.99,,,-99.99,,2013-07-22 19:16:00,
2013-07-22 14:24:00,89.0,75.0,-100.00,SW,235,0.0,0.0,63,-99.99,,,-99.99,,2013-07-22 19:24:00,
2013-07-22 14:45:00,89.0,74.0,-100.00,WSW,255,0.0,0.0,63,-99.99,,,-99.99,,2013-07-22 19:45:00,
2013-07-22 14:55:00,89.0,74.0,-100.00,WSW,255,0.0,0.0,63,-99.99,,,-99.99,,2013-07-22 19:55:00,
2013-07-22 15:22:00,88.0,74.0,-100.00,South,185,0.0,0.0,63,-99.99,,,-99.99,,2013-07-22 20:22:00,
2013-07-22 15:32:00,89.0,74.0,-100.00,South,190,0.0,0.0,63,-99.99,,,-99.99,,2013-07-22 20:32:00,
2013-07-22 15:43:00,87.0,74.0,-100.00,SSW,205,0.0,0.0,66,-99.99,,,-99.99,,2013-07-22 20:43:00,
2013-07-22 15:52:00,87.0,74.0,-100.00,SSW,205,0.0,0.0,66,-99.99,,,-99.99,,2013-07-22 20:52:00,
2013-07-22 16:12:00,89.0,74.0,-100.00,SSW,195,0.0,0.0,61,-99.99,,,-99.99,,2013-07-22 21:12:00,
2013-07-22 16:22:00,89.0,74.0,-100.00,SSW,195,0.0,0.0,61,-99.99,,,-99.99,,2013-07-22 21:22:00,
2013-07-22 16:53:00,87.0,74.0,-100.00,SW,235,0.0,0.0,65,-99.99,,,-99.99,,2013-07-22 21:53:00,
2013-07-22 17:11:00,89.0,74.0,-100.00,South,190,0.0,0.0,63,-99.99,,,-99.99,,2013-07-22 22:11:00,
2013-07-22 17:22:00,89.0,74.0,-100.00,South,190,0.0,0.0,63,-99.99,,,-99.99,,2013-07-22 22:22:00,
2013-07-22 17:43:00,88.0,74.0,-100.00,SW,235,0.0,0.0,63,-99.99,,,-99.99,,2013-07-22 22:43:00,
2013-07-22 17:52:00,88.0,74.0,-100.00,SW,235,0.0,0.0,63,-99.99,,,-99.99,,2013-07-22 22:52:00,
2013-07-22 18:01:00,88.0,74.0,-100.00,SW,235,0.0,0.0,63,-99.99,,,-99.99,,2013-07-22 23:01:00,
2013-07-22 18:22:00,87.0,75.0,-100.00,SSW,210,0.0,0.0,67,-99.99,,,-99.99,,2013-07-22 23:22:00,
2013-07-22 18:32:00,87.0,75.0,-100.00,SW,230,0.0,0.0,68,-99.99,,,-99.99,,2013-07-22 23:32:00,
2013-07-22 18:42:00,88.0,75.0,-100.00,WSW,250,0.0,0.0,67,-99.99,,,-99.99,,2013-07-22 23:42:00,
2013-07-22 18:52:00,88.0,75.0,-100.00,WSW,250,0.0,0.0,67,-99.99,,,-99.99,,2013-07-22 23:52:00,
2013-07-22 19:01:00,87.0,75.0,-100.00,SW,235,0.0,0.0,67,-99.99,,,-99.99,,2013-07-23 00:01:00,
2013-07-22 19:12:00,87.0,75.0,-100.00,SW,220,0.0,0.0,69,-99.99,,,-99.99,,2013-07-23 00:12:00,
2013-07-22 19:22:00,87.0,75.0,-100.00,SW,220,0.0,0.0,69,-99.99,,,-99.99,,2013-07-23 00:22:00,
2013-07-22 19:52:00,86.0,76.0,-100.00,SW,230,0.0,0.0,73,-99.99,,,-99.99,,2013-07-23 00:52:00,
2013-07-22 20:11:00,84.0,76.0,-100.00,SSW,210,0.0,0.0,78,-99.99,,,-99.99,,2013-07-23 01:11:00,
2013-07-22 20:22:00,84.0,76.0,-100.00,SSW,210,0.0,0.0,78,-99.99,,,-99.99,,2013-07-23 01:22:00,
2013-07-22 20:43:00,82.0,77.0,-100.00,SSW,195,0.0,0.0,84,-99.99,,,-99.99,,2013-07-23 01:43:00,
2013-07-22 20:53:00,82.0,77.0,-100.00,SSW,195,0.0,0.0,84,-99.99,,,-99.99,,2013-07-23 01:53:00,
2013-07-22 21:11:00,80.0,78.0,-100.00,SSE,160,0.0,0.0,94,-99.99,,,-99.99,,2013-07-23 02:11:00,
2013-07-22 21:22:00,80.0,78.0,-100.00,SSE,160,0.0,0.0,94,-99.99,,,-99.99,,2013-07-23 02:22:00,
2013-07-22 21:33:00,80.0,78.0,-100.00,SSE,160,0.0,0.0,94,-99.99,,,-99.99,,2013-07-23 02:33:00,
2013-07-22 21:43:00,78.0,78.0,-100.00,SSE,155,0.0,0.0,99,-99.99,,,-99.99,,2013-07-23 02:43:00,
2013-07-22 21:53:00,78.0,78.0,-100.00,SSE,155,0.0,0.0,99,-99.99,,,-99.99,,2013-07-23 02:53:00,
2013-07-22 22:22:00,77.0,76.0,-100.00,SW,220,0.0,0.0,99,-99.99,,,-99.99,,2013-07-23 03:22:00,
2013-07-22 22:52:00,76.0,76.0,-100.00,NW,315,0.0,0.0,99,-99.99,,,-99.99,,2013-07-23 03:52:00,
2013-07-22 23:11:00,75.0,75.0,-100.00,West,275,0.0,0.0,99,-99.99,,,-99.99,,2013-07-23 04:11:00,
2013-07-22 23:22:00,75.0,75.0,-100.00,West,275,0.0,0.0,99,-99.99,,,-99.99,,2013-07-23 04:22:00,
2013-07-22 23:32:00,74.0,74.0,-100.00,North,10,0.0,0.0,99,-99.99,,,-99.99,,2013-07-23 04:32:00,
2013-07-22 23:43:00,76.0,69.0,-100.00,NNE,15,0.0,0.0,78,-99.99,,,-99.99,,2013-07-23 04:43:00,
2013-07-22 23:53:00,76.0,69.0,-100.00,NNE,15,0.0,0.0,78,-99.99,,,-99.99,,2013-07-23 04:53:00,